Time;durP1;ratioP1;P1;durP2;ratioP2;P2;SDS_P1;SDS_P2;PMS_P1;PMS_P2;Temp;Humidity;BMP_temperature;BMP_pressure;BME280_temperature;BME280_humidity;BME280_pressure;Samples;Min_cycle;Max_cycle;Signal;HPM_P1;HPM_P2
2022/07/09 00:00:31;;;;;;;9.32;6.10;;;17.90;99.90;;;;;;5053486;28;20024;-57
2022/07/09 00:02:57;;;;;;;9.15;5.85;;;17.90;99.90;;;;;;5052653;28;20105;-59
2022/07/09 00:05:23;;;;;;;10.57;6.07;;;18.00;99.90;;;;;;5053171;28;20058;-59
2022/07/09 00:07:48;;;;;;;8.50;5.63;;;17.90;99.90;;;;;;5053544;28;20420;-59
2022/07/09 00:10:14;;;;;;;10.27;5.90;;;17.80;99.90;;;;;;5053020;28;20028;-59
2022/07/09 00:12:40;;;;;;;12.10;6.43;;;17.70;99.90;;;;;;5053304;28;20059;-58
2022/07/09 00:15:06;;;;;;;9.35;6.72;;;17.70;99.90;;;;;;5053040;28;20021;-58
2022/07/09 00:17:32;;;;;;;11.50;7.13;;;17.70;99.90;;;;;;5053200;28;20485;-58
2022/07/09 00:19:57;;;;;;;13.07;7.30;;;17.70;99.90;;;;;;5052883;28;20048;-59
2022/07/09 00:22:23;;;;;;;11.38;7.28;;;17.60;99.90;;;;;;5052493;28;20032;-58
2022/07/09 00:24:49;;;;;;;7.75;6.90;;;17.60;99.90;;;;;;5052696;28;20025;-59
2022/07/09 00:27:14;;;;;;;10.40;7.20;;;17.60;99.90;;;;;;5052683;28;20036;-59
2022/07/09 00:29:40;;;;;;;10.57;7.60;;;17.60;99.90;;;;;;5052790;28;20039;-59
2022/07/09 00:32:07;;;;;;;13.68;7.22;;;17.70;99.90;;;;;;5051450;28;20166;-59
2022/07/09 00:34:33;;;;;;;12.55;7.10;;;17.60;99.90;;;;;;5052279;28;20104;-59
2022/07/09 00:36:59;;;;;;;11.48;7.65;;;17.60;99.90;;;;;;5052466;28;20032;-59
2022/07/09 00:39:25;;;;;;;12.18;7.75;;;17.60;99.90;;;;;;5052520;28;20029;-59
2022/07/09 00:42:00;;;;;;;12.63;7.90;;;17.60;99.90;;;;;;5052286;28;20017;-58
2022/07/09 00:44:26;;;;;;;15.30;9.25;;;17.60;99.90;;;;;;5052211;28;20037;-58
2022/07/09 00:46:51;;;;;;;13.90;9.05;;;17.50;99.90;;;;;;5052464;28;20044;-58
2022/07/09 00:49:17;;;;;;;13.13;9.65;;;17.70;99.90;;;;;;5052131;28;20178;-58
2022/07/09 00:51:43;;;;;;;15.02;10.27;;;17.90;99.90;;;;;;5052121;28;20394;-58
2022/07/09 00:54:09;;;;;;;10.68;9.35;;;17.80;99.90;;;;;;5052400;28;20024;-58
2022/07/09 00:56:34;;;;;;;11.77;9.80;;;17.60;99.90;;;;;;5052036;28;20043;-58
2022/07/09 00:59:01;;;;;;;11.43;9.73;;;17.50;99.90;;;;;;5052382;28;20028;-59
2022/07/09 01:01:27;;;;;;;13.10;9.48;;;17.40;99.90;;;;;;5051817;28;20051;-58
2022/07/09 01:03:52;;;;;;;14.70;9.30;;;17.30;99.90;;;;;;5051896;28;20037;-59
2022/07/09 01:06:18;;;;;;;12.85;8.18;;;17.40;99.90;;;;;;5051884;28;20112;-58
2022/07/09 01:08:44;;;;;;;13.13;8.10;;;17.30;99.90;;;;;;5052086;28;20025;-58
2022/07/09 01:11:10;;;;;;;10.85;7.95;;;17.30;99.90;;;;;;5051975;28;20025;-57
2022/07/09 01:13:35;;;;;;;13.40;8.00;;;17.20;99.90;;;;;;5051759;28;20025;-58
2022/07/09 01:16:01;;;;;;;10.45;8.45;;;17.20;99.90;;;;;;5051196;28;20082;-58
2022/07/09 01:18:26;;;;;;;9.52;7.68;;;17.30;99.90;;;;;;5051757;28;20111;-58
2022/07/09 01:20:52;;;;;;;11.10;7.30;;;17.30;99.90;;;;;;5051639;28;20138;-58
2022/07/09 01:23:18;;;;;;;10.25;7.40;;;17.40;99.90;;;;;;5051543;28;20036;-57
2022/07/09 01:25:44;;;;;;;11.57;7.10;;;17.60;99.90;;;;;;5051573;28;20021;-58
2022/07/09 01:28:10;;;;;;;9.65;7.00;;;17.70;99.90;;;;;;5051845;28;20143;-58
2022/07/09 01:30:39;;;;;;;15.48;6.90;;;17.80;99.90;;;;;;5051587;28;20032;-58
2022/07/09 01:33:05;;;;;;;9.75;6.88;;;17.90;99.90;;;;;;5051751;28;20075;-58
2022/07/09 01:35:31;;;;;;;10.10;6.80;;;18.00;99.90;;;;;;5051591;28;20433;-58
2022/07/09 01:37:56;;;;;;;14.23;6.90;;;18.00;99.90;;;;;;5051552;28;20371;-59
2022/07/09 01:40:23;;;;;;;12.98;7.00;;;18.10;99.90;;;;;;5051482;28;20017;-58
2022/07/09 01:42:48;;;;;;;11.77;7.03;;;18.20;99.90;;;;;;5051380;28;20520;-58
2022/07/09 01:45:17;;;;;;;14.95;7.13;;;18.20;99.90;;;;;;5051350;28;20064;-58
2022/07/09 01:47:43;;;;;;;11.85;7.78;;;18.20;99.90;;;;;;5051551;28;20036;-58
2022/07/09 01:50:09;;;;;;;13.20;8.20;;;18.20;99.90;;;;;;5051083;28;20500;-58
2022/07/09 01:52:35;;;;;;;12.10;7.88;;;18.20;99.90;;;;;;5051229;28;20051;-58
2022/07/09 01:55:01;;;;;;;11.00;7.32;;;18.20;99.90;;;;;;5051313;28;20021;-58
2022/07/09 01:57:27;;;;;;;10.65;7.57;;;18.20;99.90;;;;;;5051246;28;20486;-60
2022/07/09 01:59:53;;;;;;;10.93;9.05;;;18.10;99.90;;;;;;5051230;28;20083;-58
2022/07/09 02:02:19;;;;;;;11.23;7.97;;;18.10;99.90;;;;;;5051064;28;20017;-58
2022/07/09 02:04:46;;;;;;;11.93;8.23;;;18.20;99.90;;;;;;5051161;28;20032;-59
2022/07/09 02:07:13;;;;;;;12.63;8.63;;;18.20;99.90;;;;;;5051040;28;20061;-58
2022/07/09 02:09:39;;;;;;;11.23;8.85;;;18.20;99.90;;;;;;5051308;28;20035;-58
2022/07/09 02:12:05;;;;;;;9.20;8.15;;;18.10;99.90;;;;;;5050963;28;20071;-58
2022/07/09 02:14:31;;;;;;;11.23;8.05;;;18.00;99.90;;;;;;5049710;28;20454;-59
2022/07/09 02:16:57;;;;;;;11.00;8.60;;;18.00;99.90;;;;;;5051314;28;20092;-58
2022/07/09 02:19:22;;;;;;;17.23;9.95;;;17.90;99.90;;;;;;5051197;28;20470;-58
2022/07/09 02:21:48;;;;;;;15.02;9.02;;;18.10;99.90;;;;;;5050883;28;20096;-60
2022/07/09 02:24:15;;;;;;;14.65;9.77;;;18.10;99.90;;;;;;5051223;28;20036;-58
2022/07/09 02:26:40;;;;;;;14.40;10.05;;;18.10;99.90;;;;;;5052344;28;20082;-59
2022/07/09 02:29:06;;;;;;;13.30;10.20;;;18.10;99.90;;;;;;5054973;28;20112;-58
2022/07/09 02:31:31;;;;;;;14.30;9.55;;;18.10;99.90;;;;;;5054655;28;20054;-58
2022/07/09 02:33:57;;;;;;;15.38;10.13;;;18.10;99.90;;;;;;5054443;28;20120;-60
2022/07/09 02:36:23;;;;;;;12.18;10.18;;;18.00;99.90;;;;;;5054810;28;20148;-59
2022/07/09 02:38:49;;;;;;;15.20;9.60;;;18.00;99.90;;;;;;5054614;28;20078;-58
2022/07/09 02:41:14;;;;;;;14.18;10.48;;;18.00;99.90;;;;;;5054426;28;20021;-58
2022/07/09 02:43:43;;;;;;;17.10;10.95;;;17.90;99.90;;;;;;5054447;28;20031;-58
2022/07/09 02:46:09;;;;;;;14.80;10.23;;;17.90;99.90;;;;;;5054242;28;20025;-58
2022/07/09 02:48:35;;;;;;;11.45;8.73;;;17.90;99.90;;;;;;5053474;28;20090;-59
2022/07/09 02:51:00;;;;;;;11.73;8.27;;;17.70;99.90;;;;;;5054540;28;20029;-58
2022/07/09 02:53:26;;;;;;;9.82;7.45;;;17.50;99.90;;;;;;5053951;28;20045;-58
2022/07/09 02:55:52;;;;;;;9.10;7.05;;;17.40;99.90;;;;;;5054373;28;20024;-58
2022/07/09 02:58:18;;;;;;;12.90;8.48;;;17.30;99.90;;;;;;5054670;28;20029;-59
2022/07/09 03:00:43;;;;;;;13.05;9.55;;;17.40;99.90;;;;;;5054559;28;20385;-58
2022/07/09 03:03:10;;;;;;;13.48;9.02;;;17.40;99.90;;;;;;5054318;28;20039;-58
2022/07/09 03:05:35;;;;;;;11.45;9.65;;;17.30;99.90;;;;;;5054169;28;20053;-58
2022/07/09 03:08:02;;;;;;;11.00;9.55;;;17.30;99.90;;;;;;5054104;28;20075;-58
2022/07/09 03:10:28;;;;;;;12.40;10.00;;;17.40;99.90;;;;;;5054364;28;20072;-58
2022/07/09 03:12:53;;;;;;;17.90;11.48;;;17.50;99.90;;;;;;5053831;28;20044;-58
2022/07/09 03:15:19;;;;;;;12.85;11.13;;;17.70;99.90;;;;;;5052914;28;20385;-58
2022/07/09 03:17:47;;;;;;;12.68;9.88;;;17.60;99.90;;;;;;5053985;28;20094;-58
2022/07/09 03:20:13;;;;;;;15.18;9.73;;;17.20;99.90;;;;;;5052607;28;20036;-58
2022/07/09 03:22:39;;;;;;;12.73;8.77;;;17.00;99.90;;;;;;5053969;28;20040;-59
2022/07/09 03:25:05;;;;;;;13.35;9.98;;;16.70;99.90;;;;;;5053641;28;20025;-58
2022/07/09 03:27:32;;;;;;;13.75;10.90;;;16.80;99.90;;;;;;5052517;28;20025;-58
2022/07/09 03:29:57;;;;;;;16.38;10.57;;;16.80;99.90;;;;;;5053719;28;20477;-59
2022/07/09 03:32:24;;;;;;;13.50;11.27;;;16.70;99.90;;;;;;5053483;28;20112;-58
2022/07/09 03:34:49;;;;;;;14.27;10.98;;;16.70;99.90;;;;;;5053922;28;20033;-58
2022/07/09 03:37:15;;;;;;;12.73;11.43;;;16.60;99.90;;;;;;5053659;28;20558;-58
2022/07/09 03:39:41;;;;;;;14.68;11.43;;;16.50;99.90;;;;;;5052771;28;20040;-58
2022/07/09 03:42:06;;;;;;;15.35;12.10;;;16.40;99.90;;;;;;5053574;28;20029;-59
2022/07/09 03:44:33;;;;;;;16.70;12.23;;;16.40;99.90;;;;;;5053109;28;20388;-58
2022/07/09 03:47:00;;;;;;;15.30;12.88;;;16.50;99.90;;;;;;5053369;28;20027;-58
2022/07/09 03:49:26;;;;;;;15.50;12.98;;;16.60;99.90;;;;;;5053610;28;20029;-58
2022/07/09 03:51:52;;;;;;;20.05;12.27;;;16.60;99.90;;;;;;5053376;28;20052;-58
2022/07/09 03:54:18;;;;;;;16.85;12.45;;;16.60;99.90;;;;;;5053548;28;20071;-58
2022/07/09 03:56:44;;;;;;;13.30;10.73;;;16.60;99.90;;;;;;5053878;28;20032;-58
2022/07/09 03:59:09;;;;;;;13.98;12.38;;;16.60;99.90;;;;;;5053433;28;20029;-58
2022/07/09 04:01:35;;;;;;;14.80;12.25;;;16.60;99.90;;;;;;5053308;28;20066;-57
2022/07/09 04:04:01;;;;;;;17.65;12.77;;;16.50;99.90;;;;;;5052995;28;20385;-57
2022/07/09 04:06:27;;;;;;;13.93;12.50;;;16.40;99.90;;;;;;5053149;28;20506;-57
2022/07/09 04:08:52;;;;;;;13.60;12.27;;;16.30;99.90;;;;;;5053505;28;20051;-58
2022/07/09 04:11:18;;;;;;;16.13;12.68;;;16.30;99.90;;;;;;5052013;28;20114;-57
2022/07/09 04:13:44;;;;;;;14.07;11.35;;;16.20;99.90;;;;;;5051615;28;20113;-57
2022/07/09 04:16:09;;;;;;;13.75;11.68;;;16.10;99.90;;;;;;5052832;28;20504;-58
2022/07/09 04:18:35;;;;;;;14.55;11.77;;;16.10;99.90;;;;;;5052870;28;20040;-57
2022/07/09 04:21:01;;;;;;;14.80;12.25;;;16.00;99.90;;;;;;5053032;28;20029;-59
2022/07/09 04:23:27;;;;;;;14.43;11.80;;;16.00;99.90;;;;;;5052913;28;20047;-57
2022/07/09 04:25:53;;;;;;;15.18;13.00;;;16.10;99.90;;;;;;5051521;28;20095;-58
2022/07/09 04:28:19;;;;;;;12.57;11.10;;;16.10;99.90;;;;;;5051598;28;20505;-57
2022/07/09 04:30:46;;;;;;;13.05;11.73;;;16.10;99.90;;;;;;5051336;28;20017;-57
2022/07/09 04:33:12;;;;;;;13.55;12.15;;;16.10;99.90;;;;;;5051100;28;20033;-57
2022/07/09 04:35:38;;;;;;;13.25;10.82;;;16.20;99.90;;;;;;5052508;28;20021;-58
2022/07/09 04:38:04;;;;;;;12.25;10.88;;;16.20;99.90;;;;;;5052468;28;20029;-60
2022/07/09 04:40:30;;;;;;;13.52;10.93;;;16.10;99.90;;;;;;5052682;28;20024;-57
2022/07/09 04:42:55;;;;;;;15.45;10.40;;;16.20;99.90;;;;;;5052778;28;20025;-59
2022/07/09 04:45:21;;;;;;;14.32;10.02;;;16.20;99.90;;;;;;5052647;28;20021;-58
2022/07/09 04:47:47;;;;;;;16.45;11.07;;;16.20;99.90;;;;;;5052511;28;20025;-58
2022/07/09 04:50:13;;;;;;;13.95;10.38;;;16.30;99.90;;;;;;5051312;28;20076;-57
2022/07/09 04:52:39;;;;;;;14.65;11.13;;;16.40;99.90;;;;;;5052316;28;20044;-59
2022/07/09 04:55:06;;;;;;;19.67;12.07;;;16.40;99.90;;;;;;5052313;28;20036;-58
2022/07/09 04:57:32;;;;;;;15.63;12.35;;;16.40;99.90;;;;;;5052289;28;20027;-58
2022/07/09 05:00:02;;;;;;;18.15;11.25;;;16.50;99.90;;;;;;5052249;28;20020;-58
2022/07/09 05:02:28;;;;;;;15.35;11.50;;;16.50;99.90;;;;;;5051860;28;20044;-58
2022/07/09 05:04:54;;;;;;;12.25;10.68;;;16.50;99.90;;;;;;5051855;28;20055;-57
2022/07/09 05:07:19;;;;;;;14.85;11.27;;;16.60;99.90;;;;;;5052180;28;20493;-58
2022/07/09 05:09:45;;;;;;;15.63;10.98;;;16.80;99.90;;;;;;5051922;28;20401;-58
2022/07/09 05:12:11;;;;;;;20.25;11.57;;;16.90;99.90;;;;;;5052071;28;20032;-61
2022/07/09 05:14:37;;;;;;;15.57;10.68;;;16.90;99.90;;;;;;5051793;28;20064;-58
2022/07/09 05:17:04;;;;;;;15.45;10.70;;;16.90;99.90;;;;;;5051702;28;20025;-59
2022/07/09 05:19:30;;;;;;;13.45;10.88;;;16.90;99.90;;;;;;5052071;28;20029;-58
2022/07/09 05:21:55;;;;;;;12.13;10.93;;;16.90;99.90;;;;;;5051607;28;20493;-58
2022/07/09 05:24:21;;;;;;;14.43;10.68;;;17.00;99.90;;;;;;5051857;28;20111;-58
2022/07/09 05:26:46;;;;;;;16.75;11.18;;;17.00;99.90;;;;;;5051501;28;20028;-59
2022/07/09 05:29:12;;;;;;;12.25;10.88;;;17.00;99.90;;;;;;5051743;28;20035;-57
2022/07/09 05:31:38;;;;;;;14.05;10.77;;;17.10;99.90;;;;;;5051790;28;20025;-58
2022/07/09 05:34:05;;;;;;;13.63;11.10;;;17.40;99.90;;;;;;5051457;28;20367;-58
2022/07/09 05:36:31;;;;;;;13.18;11.88;;;17.50;99.90;;;;;;5050255;28;20032;-59
2022/07/09 05:38:58;;;;;;;15.10;11.60;;;17.50;99.90;;;;;;5051825;28;20501;-57
2022/07/09 05:41:24;;;;;;;17.42;11.82;;;17.40;99.90;;;;;;5050338;28;20059;-58
2022/07/09 05:43:51;;;;;;;15.65;12.52;;;17.50;99.90;;;;;;5051875;28;20041;-57
2022/07/09 05:46:17;;;;;;;14.63;12.52;;;17.60;99.90;;;;;;5050208;28;20512;-58
2022/07/09 05:48:42;;;;;;;18.02;14.80;;;17.60;99.90;;;;;;5051323;28;20025;-59
2022/07/09 05:51:08;;;;;;;14.07;12.50;;;17.60;99.90;;;;;;5050078;28;20031;-58
2022/07/09 05:53:34;;;;;;;14.00;12.65;;;17.70;99.90;;;;;;5050890;28;20508;-59
2022/07/09 05:56:00;;;;;;;17.45;14.35;;;17.80;99.90;;;;;;5050947;28;20036;-58
2022/07/09 05:58:26;;;;;;;16.60;13.93;;;17.80;99.90;;;;;;5051520;28;20021;-58
2022/07/09 06:00:51;;;;;;;15.82;14.00;;;18.00;99.90;;;;;;5050650;28;20029;-58
2022/07/09 06:03:17;;;;;;;18.88;14.57;;;18.10;99.90;;;;;;5050949;28;20024;-58
2022/07/09 06:05:43;;;;;;;19.80;14.95;;;18.20;99.90;;;;;;5051253;28;20498;-58
2022/07/09 06:08:09;;;;;;;19.17;14.38;;;18.30;99.90;;;;;;5051089;28;20115;-58
2022/07/09 06:10:35;;;;;;;17.95;14.25;;;18.60;99.90;;;;;;5051200;28;20047;-58
2022/07/09 06:13:00;;;;;;;16.90;14.15;;;18.80;99.90;;;;;;5050765;28;20051;-58
2022/07/09 06:15:26;;;;;;;19.80;14.32;;;19.10;99.90;;;;;;5051026;28;20025;-58
2022/07/09 06:17:52;;;;;;;18.25;14.25;;;19.30;99.90;;;;;;5049733;28;20354;-59
2022/07/09 06:20:17;;;;;;;17.75;14.18;;;19.60;99.90;;;;;;5051160;28;20025;-58
2022/07/09 06:22:43;;;;;;;14.55;13.05;;;19.80;99.90;;;;;;5050913;28;20515;-58
2022/07/09 06:25:09;;;;;;;16.77;13.07;;;20.00;99.90;;;;;;5050898;28;20538;-58
2022/07/09 06:27:35;;;;;;;15.68;13.00;;;20.40;99.90;;;;;;5050950;28;20025;-59
2022/07/09 06:30:02;;;;;;;13.18;11.52;;;20.50;99.90;;;;;;5051022;28;20024;-58
2022/07/09 06:32:27;;;;;;;14.68;11.80;;;20.70;99.90;;;;;;5050750;28;20071;-58
2022/07/09 06:34:53;;;;;;;17.85;11.95;;;20.80;99.90;;;;;;5050724;28;20068;-58
2022/07/09 06:37:18;;;;;;;13.13;11.60;;;21.10;99.90;;;;;;5050655;28;20060;-58
2022/07/09 06:39:44;;;;;;;15.43;10.82;;;21.40;99.90;;;;;;5050675;28;20036;-58
2022/07/09 06:42:10;;;;;;;12.40;10.98;;;21.50;99.90;;;;;;5050893;28;20464;-59
2022/07/09 06:44:36;;;;;;;13.52;10.18;;;21.80;99.90;;;;;;5050751;28;20052;-59
2022/07/09 06:47:02;;;;;;;11.32;9.13;;;21.80;99.90;;;;;;5050500;28;20033;-59
2022/07/09 06:49:28;;;;;;;12.68;9.25;;;22.30;99.90;;;;;;5050867;28;20111;-58
2022/07/09 06:51:53;;;;;;;13.20;9.52;;;22.90;99.90;;;;;;5050633;28;20525;-58
2022/07/09 06:54:19;;;;;;;10.60;8.40;;;22.80;99.90;;;;;;5050329;28;20413;-58
2022/07/09 06:56:46;;;;;;;11.68;8.93;;;23.20;99.90;;;;;;5050573;28;20021;-58
2022/07/09 06:59:11;;;;;;;11.30;8.15;;;23.70;99.90;;;;;;5050748;28;20025;-59
2022/07/09 07:01:38;;;;;;;12.57;7.68;;;24.40;99.90;;;;;;5050361;28;20024;-60
2022/07/09 07:04:04;;;;;;;9.70;7.97;;;25.40;99.90;;;;;;5050378;28;20104;-60
2022/07/09 07:06:29;;;;;;;10.65;7.50;;;25.80;99.90;;;;;;5050651;28;20386;-60
2022/07/09 07:08:55;;;;;;;10.40;7.43;;;25.20;99.90;;;;;;5050415;28;20037;-60
2022/07/09 07:11:21;;;;;;;7.90;6.68;;;24.50;99.90;;;;;;5050183;28;20037;-59
2022/07/09 07:13:46;;;;;;;9.63;6.38;;;23.80;99.90;;;;;;5051736;28;20440;-57
2022/07/09 07:16:12;;;;;;;8.27;6.30;;;23.80;99.90;;;;;;5053797;28;20017;-57
2022/07/09 07:18:38;;;;;;;11.23;5.65;;;23.80;99.90;;;;;;5052612;28;20091;-57
2022/07/09 07:21:04;;;;;;;11.10;6.10;;;23.80;99.90;;;;;;5053983;28;20083;-58
2022/07/09 07:23:32;;;;;;;9.40;4.70;;;24.40;99.90;;;;;;5053665;28;20108;-58
2022/07/09 07:25:59;;;;;;;12.05;5.15;;;25.20;99.90;;;;;;5053953;28;20078;-58
2022/07/09 07:28:24;;;;;;;6.60;4.47;;;26.40;99.90;;;;;;5054036;28;20043;-58
2022/07/09 07:30:50;;;;;;;8.73;5.18;;;26.10;99.90;;;;;;5053645;28;20385;-57
2022/07/09 07:33:16;;;;;;;8.25;5.07;;;25.50;99.90;;;;;;5054008;28;20341;-58
2022/07/09 07:35:41;;;;;;;7.65;5.68;;;24.90;99.90;;;;;;5054092;28;20056;-59
2022/07/09 07:38:07;;;;;;;8.85;6.05;;;24.10;99.90;;;;;;5053731;28;20111;-59
2022/07/09 07:40:33;;;;;;;10.73;5.75;;;23.80;99.90;;;;;;5053734;28;20017;-60
2022/07/09 07:42:58;;;;;;;8.38;5.05;;;23.70;99.90;;;;;;5053745;28;20438;-60
2022/07/09 07:45:24;;;;;;;8.85;7.00;;;24.00;99.90;;;;;;5053929;28;20474;-60
2022/07/09 07:47:49;;;;;;;9.32;6.85;;;24.10;99.90;;;;;;5053062;28;20056;-60
2022/07/09 07:50:15;;;;;;;10.70;7.30;;;24.60;99.90;;;;;;5053333;28;20437;-60
2022/07/09 07:52:41;;;;;;;10.15;7.13;;;25.60;99.90;;;;;;5053186;28;20502;-60
2022/07/09 07:55:07;;;;;;;11.60;7.82;;;26.40;99.90;;;;;;5053388;28;20029;-60
2022/07/09 07:57:33;;;;;;;8.15;7.13;;;27.30;99.90;;;;;;5052183;28;20504;-60
2022/07/09 07:59:58;;;;;;;12.00;7.90;;;27.90;99.40;;;;;;5053266;28;20021;-60
2022/07/09 08:02:24;;;;;;;13.02;8.25;;;28.50;98.30;;;;;;5053152;28;20017;-67
2022/07/09 08:04:49;;;;;;;11.13;8.75;;;28.00;98.10;;;;;;5052817;28;20040;-60
2022/07/09 08:07:15;;;;;;;11.45;9.52;;;28.00;98.60;;;;;;5053005;28;20393;-60
2022/07/09 08:09:41;;;;;;;12.85;9.95;;;28.00;98.90;;;;;;5053219;28;20036;-60
2022/07/09 08:12:07;;;;;;;11.43;9.18;;;28.10;98.60;;;;;;5052641;28;20029;-60
2022/07/09 08:14:33;;;;;;;14.18;10.35;;;29.10;97.10;;;;;;5051368;28;20124;-60
2022/07/09 08:16:58;;;;;;;13.13;11.70;;;29.40;95.00;;;;;;5051673;28;20112;-60
2022/07/09 08:19:24;;;;;;;14.07;12.60;;;28.70;95.50;;;;;;5052849;28;20425;-60
2022/07/09 08:21:49;;;;;;;15.65;13.65;;;28.20;96.70;;;;;;5052891;28;20029;-60
2022/07/09 08:24:15;;;;;;;19.75;13.52;;;27.70;97.80;;;;;;5052533;28;20333;-60
2022/07/09 08:26:41;;;;;;;15.40;13.30;;;28.20;97.50;;;;;;5052726;28;20036;-60
2022/07/09 08:29:06;;;;;;;16.42;14.25;;;29.10;96.20;;;;;;5052717;28;20029;-58
2022/07/09 08:31:32;;;;;;;15.82;14.05;;;29.30;95.40;;;;;;5052944;28;20074;-60
2022/07/09 08:33:57;;;;;;;17.92;16.02;;;29.20;95.40;;;;;;5052486;28;20127;-59
2022/07/09 08:36:23;;;;;;;20.33;17.13;;;29.00;96.80;;;;;;5052765;28;20085;-59
2022/07/09 08:38:49;;;;;;;18.88;17.08;;;29.00;96.30;;;;;;5052921;28;20035;-60
2022/07/09 08:41:19;;;;;;;23.10;19.13;;;29.00;96.40;;;;;;5052434;28;20029;-59
2022/07/09 08:43:49;;;;;;;20.38;18.23;;;28.20;98.40;;;;;;5051809;28;20549;-60
2022/07/09 08:46:16;;;;;;;22.67;20.02;;;28.90;97.40;;;;;;5052577;28;20029;-60
2022/07/09 08:48:43;;;;;;;21.65;19.48;;;29.10;97.30;;;;;;5052516;28;20402;-60
2022/07/09 08:51:09;;;;;;;25.92;23.20;;;29.20;96.90;;;;;;5052260;28;20122;-59
2022/07/09 08:53:42;;;;;;;26.33;23.48;;;29.10;97.90;;;;;;5051725;28;20138;-59
2022/07/09 08:56:09;;;;;;;28.17;24.00;;;29.10;97.80;;;;;;5052122;28;20043;-60
2022/07/09 08:58:34;;;;;;;29.45;26.52;;;29.50;97.40;;;;;;5052252;28;20024;-59
2022/07/09 09:01:00;;;;;;;26.20;23.67;;;29.20;97.50;;;;;;5052074;28;20378;-59
2022/07/09 09:03:26;;;;;;;27.67;24.95;;;28.90;98.20;;;;;;5052109;28;20032;-61
2022/07/09 09:06:01;;;;;;;28.45;25.58;;;29.20;97.70;;;;;;5051532;28;20040;-60
2022/07/09 09:08:27;;;;;;;29.80;25.10;;;29.40;97.30;;;;;;5052176;28;20032;-60
2022/07/09 09:10:53;;;;;;;26.90;24.15;;;29.20;97.50;;;;;;5052176;28;20112;-60
2022/07/09 09:13:19;;;;;;;28.05;25.10;;;29.20;97.70;;;;;;5051701;28;20416;-59
2022/07/09 09:15:44;;;;;;;28.92;26.02;;;28.50;98.60;;;;;;5052074;28;20021;-59
2022/07/09 09:18:10;;;;;;;29.05;25.85;;;28.20;99.80;;;;;;5051697;28;20029;-61
2022/07/09 09:20:37;;;;;;;26.67;23.73;;;27.50;99.90;;;;;;5051928;28;20032;-59
2022/07/09 09:23:04;;;;;;;27.42;22.05;;;27.00;99.90;;;;;;5051453;28;20079;-59
2022/07/09 09:25:30;;;;;;;25.02;21.63;;;26.90;99.90;;;;;;5051447;28;20100;-59
2022/07/09 09:27:58;;;;;;;26.35;21.30;;;26.70;99.90;;;;;;5050347;28;20040;-59
2022/07/09 09:30:26;;;;;;;22.35;20.05;;;26.50;99.90;;;;;;5051645;28;20108;-59
2022/07/09 09:33:03;;;;;;;20.92;18.67;;;26.10;99.90;;;;;;5051170;28;20035;-59
2022/07/09 09:35:42;;;;;;;22.90;19.90;;;26.10;99.90;;;;;;5051115;28;20032;-59
2022/07/09 09:38:08;;;;;;;21.38;17.85;;;26.50;99.90;;;;;;5051756;28;20504;-59
2022/07/09 09:40:35;;;;;;;19.50;16.73;;;26.50;99.90;;;;;;5051533;28;20052;-59
2022/07/09 09:43:04;;;;;;;19.77;17.55;;;27.60;99.90;;;;;;5051077;28;20025;-59
2022/07/09 09:45:32;;;;;;;22.58;16.15;;;28.50;99.60;;;;;;5050990;28;20021;-59
2022/07/09 09:47:59;;;;;;;14.55;11.32;;;28.20;99.70;;;;;;5051475;28;20036;-59
2022/07/09 09:50:25;;;;;;;16.08;10.45;;;27.20;99.90;;;;;;5051381;28;20163;-60
2022/07/09 09:52:54;;;;;;;14.48;9.70;;;26.80;99.90;;;;;;5051025;28;20041;-59
2022/07/09 09:55:21;;;;;;;13.73;10.95;;;26.90;99.90;;;;;;5051587;28;20086;-57
2022/07/09 09:57:48;;;;;;;14.68;11.13;;;27.90;99.90;;;;;;5051539;28;20025;-59
2022/07/09 10:00:15;;;;;;;16.08;13.57;;;27.70;99.90;;;;;;5050984;28;20025;-60
2022/07/09 10:02:46;;;;;;;21.05;14.45;;;27.50;99.90;;;;;;5050960;28;20029;-57
2022/07/09 10:05:12;;;;;;;20.77;13.52;;;26.70;99.90;;;;;;5050987;28;20098;-58
2022/07/09 10:07:40;;;;;;;16.70;13.48;;;26.30;99.90;;;;;;5050989;28;20025;-59
2022/07/09 10:10:06;;;;;;;20.45;11.68;;;26.30;99.90;;;;;;5049657;28;20033;-59
2022/07/09 10:12:36;;;;;;;11.48;8.50;;;26.90;99.90;;;;;;5050915;28;20060;-59
2022/07/09 10:15:08;;;;;;;10.13;6.13;;;28.50;99.90;;;;;;5050687;28;20021;-60
2022/07/09 10:17:42;;;;;;;6.75;5.25;;;29.40;97.30;;;;;;5051219;28;20032;-60
2022/07/09 10:20:10;;;;;;;6.72;5.20;;;28.90;97.90;;;;;;5050810;28;20103;-59
2022/07/09 10:22:41;;;;;;;9.75;5.47;;;28.40;99.00;;;;;;5050949;28;20029;-60
2022/07/09 10:25:08;;;;;;;7.72;5.38;;;28.70;98.50;;;;;;5050593;28;20049;-57
2022/07/09 10:27:49;;;;;;;11.05;4.53;;;27.90;99.30;;;;;;5051069;28;20033;-57
2022/07/09 10:30:25;;;;;;;10.75;5.00;;;28.30;99.00;;;;;;5051080;28;20032;-62
2022/07/09 10:33:06;;;;;;;4.90;3.40;;;29.10;98.10;;;;;;5051191;28;20032;-58
2022/07/09 10:35:45;;;;;;;4.93;2.97;;;28.90;98.00;;;;;;5050693;28;20106;-60
2022/07/09 10:38:12;;;;;;;4.47;2.80;;;27.90;98.10;;;;;;5050804;28;20029;-60
2022/07/09 10:40:43;;;;;;;6.72;2.40;;;27.80;98.60;;;;;;5050515;28;20032;-59
2022/07/09 10:43:10;;;;;;;4.85;2.20;;;28.40;98.00;;;;;;5051092;28;20394;-59
2022/07/09 10:45:44;;;;;;;3.38;1.65;;;28.50;97.20;;;;;;5050832;28;20017;-59
2022/07/09 10:48:14;;;;;;;5.00;1.50;;;27.90;97.80;;;;;;5053047;28;20033;-59
2022/07/09 10:50:42;;;;;;;3.63;1.60;;;27.70;97.50;;;;;;5054405;28;20532;-59
2022/07/09 10:53:08;;;;;;;4.97;1.70;;;28.00;97.60;;;;;;5054588;28;20049;-59
2022/07/09 10:55:34;;;;;;;5.15;1.80;;;28.00;97.30;;;;;;5054068;28;20029;-59
2022/07/09 10:58:02;;;;;;;5.28;1.52;;;27.20;98.30;;;;;;5054324;28;20040;-60
2022/07/09 11:00:30;;;;;;;4.95;1.40;;;28.00;98.10;;;;;;5054420;28;20017;-59
2022/07/09 11:02:57;;;;;;;3.47;1.80;;;28.70;96.80;;;;;;5054492;28;20025;-60
2022/07/09 11:05:24;;;;;;;5.38;1.50;;;28.00;97.60;;;;;;5052825;28;20021;-60
2022/07/09 11:08:04;;;;;;;2.95;1.60;;;27.40;98.60;;;;;;5054105;28;20029;-60
2022/07/09 11:10:32;;;;;;;5.35;1.25;;;28.00;97.60;;;;;;5054747;28;20025;-60
2022/07/09 11:12:59;;;;;;;3.22;1.20;;;28.80;96.00;;;;;;5053019;28;20104;-59
2022/07/09 11:15:29;;;;;;;2.35;1.00;;;28.50;95.50;;;;;;5053928;28;20017;-59
2022/07/09 11:18:04;;;;;;;2.30;1.00;;;27.70;96.50;;;;;;5054246;28;20025;-59
2022/07/09 11:20:43;;;;;;;3.45;0.82;;;27.50;96.90;;;;;;5053858;28;20100;-60
2022/07/09 11:23:18;;;;;;;1.80;0.82;;;28.30;95.70;;;;;;5053832;28;20472;-60
2022/07/09 11:25:46;;;;;;;2.45;0.90;;;28.50;95.10;;;;;;5054717;28;20059;-60
2022/07/09 11:28:23;;;;;;;2.80;0.80;;;27.90;96.20;;;;;;5055137;28;20049;-60
2022/07/09 11:30:59;;;;;;;3.35;0.93;;;27.50;96.90;;;;;;5035759;28;20059;-59
2022/07/09 11:33:25;;;;;;;4.40;1.05;;;27.40;97.30;;;;;;5054010;28;20058;-59
2022/07/09 11:35:50;;;;;;;2.03;1.02;;;27.30;96.10;;;;;;5053279;28;20025;-59
2022/07/09 11:38:16;;;;;;;1.83;0.85;;;27.30;96.60;;;;;;5053718;28;20385;-60
2022/07/09 11:40:42;;;;;;;1.95;0.90;;;27.60;96.30;;;;;;5053220;28;20044;-60
2022/07/09 11:43:15;;;;;;;4.88;0.95;;;28.10;96.10;;;;;;5053650;28;20029;-60
2022/07/09 11:45:50;;;;;;;1.73;1.00;;;28.50;95.10;;;;;;5053633;28;20052;-60
2022/07/09 11:48:16;;;;;;;6.10;1.00;;;28.00;95.30;;;;;;5054015;28;20025;-59
2022/07/09 11:50:44;;;;;;;2.53;0.65;;;28.10;95.80;;;;;;5053724;28;20025;-61
2022/07/09 11:53:21;;;;;;;2.63;0.80;;;28.50;95.20;;;;;;5053408;28;20049;-59
2022/07/09 11:56:00;;;;;;;2.45;1.10;;;28.40;94.90;;;;;;5053754;28;20025;-61
2022/07/09 11:58:26;;;;;;;3.05;0.75;;;29.20;94.10;;;;;;5053897;28;20104;-61
2022/07/09 12:00:52;;;;;;;1.40;0.63;;;29.40;93.90;;;;;;5052747;28;20096;-66
2022/07/09 12:03:28;;;;;;;1.88;0.77;;;30.20;93.60;;;;;;5053559;28;20033;-61
2022/07/09 12:05:54;;;;;;;2.28;0.90;;;29.30;93.10;;;;;;5053271;28;20021;-59
2022/07/09 12:08:30;;;;;;;2.05;0.70;;;28.70;93.20;;;;;;5053461;28;20051;-60
2022/07/09 12:10:57;;;;;;;2.55;0.63;;;28.40;93.70;;;;;;5053511;28;20035;-60
2022/07/09 12:13:23;;;;;;;1.33;0.75;;;28.70;93.80;;;;;;5053062;28;20119;-59
2022/07/09 12:15:49;;;;;;;2.72;0.60;;;28.20;93.20;;;;;;5053183;28;20024;-60
2022/07/09 12:18:14;;;;;;;1.05;0.57;;;27.40;94.50;;;;;;5051902;28;20032;-60
2022/07/09 12:20:40;;;;;;;4.43;0.90;;;26.80;95.00;;;;;;5053487;28;20029;-59
2022/07/09 12:23:06;;;;;;;4.07;0.70;;;26.40;95.70;;;;;;5053135;28;20056;-59
2022/07/09 12:25:32;;;;;;;1.23;0.70;;;26.50;96.00;;;;;;5053108;28;20052;-60
2022/07/09 12:27:57;;;;;;;1.55;0.60;;;26.80;95.80;;;;;;5052580;28;20489;-60
2022/07/09 12:30:23;;;;;;;0.95;0.60;;;26.50;95.50;;;;;;5051223;28;20116;-60
2022/07/09 12:32:49;;;;;;;1.60;0.70;;;26.20;95.20;;;;;;5052260;28;20167;-59